Albany (ALB/KALB)

Map

Destinations

Information

Location
Albany, NY
Local Time
13:03 / 1:03 pm
GMT Time
18:03 / 6:03 pm
Gates
No FAA reported delays
METAR KALB 191751Z COR 28023G35KT 10SM BKN035 04/M04 A2946 RMK AO2 PK WND 29038/1739 SLP979 60005 T00441039 10111 20039 51044
TAF KALB 191720Z 1918/2018 29028G40KT P6SM BKN035 BKN050 OVC150 FM192200 28020G30KT P6SM BKN035 BKN050 FM200400 29012G24KT P6SM VCSH OVC035 PROB30 2004/2008 2SM -SHSN BR BKN020 OVC030 FM201300 28014G28KT P6SM VCSH BKN050